Merced, California
Current Conditions -  °F | °C
As of 9:53 AM on Tuesday 21 Oct 2014 (Local Time) from KMCE Reporting Station
Clear Clear  
Wind Chill: 62°   Ceiling: Unl
Heat Index: 62°   Visibility: 10mi
Dew Point: 48°   Wind: 15mph
Humidity: 60%   Direction: 330°NNW
Pressure: 30.07"   Gusts: NA
Location:  37.3°N, 120.48°W
Report Text: KMCE 211653Z AUTO 33013KT 10SM CLR 17/09 A3007 RMK AO2 SLP183 T01670089
Loading
Personal Weather Stations






























Interactive Weather Map New forecast layout! Learn more

10-Day Weather Forecast

Advertisements
Track Severe Weather on mobile